| time (UTC) | temp F | wind direction | speed knots | gust knots | rain 1hr in | rain 24hr in | rain mn in | humidity % | barometer mb |
| 20260510131227 | 71 | 175 | 0.9 | 1.7 | 0.00 | 0.00 | 0.00 | 54 | 1014.1 |
| 20260510130723 | 71 | 163 | 0.0 | 0.9 | 0.00 | 0.00 | 0.00 | 54 | 1014.4 |
| 20260510130220 | 71 | 186 | 0.9 | 0.9 | 0.00 | 0.00 | 0.00 | 53 | 1014.0 |
| 20260510125716 | 71 | 193 | 0.9 | 1.7 | 0.00 | 0.00 | 0.00 | 53 | 1013.8 |
| 20260510125212 | 70 | 215 | 0.0 | 0.0 | 0.00 | 0.00 | 0.00 | 53 | 1014.0 |
| 20260510124709 | 69 | 185 | 0.9 | 0.9 | 0.00 | 0.00 | 0.00 | 54 | 1013.6 |
| 20260510124206 | 69 | 216 | 0.0 | 0.0 | 0.00 | 0.00 | 0.00 | 55 | 1013.7 |
| 20260510123702 | 69 | 212 | 0.0 | 0.0 | 0.00 | 0.00 | 0.00 | 55 | 1013.4 |
| 20260510123158 | 69 | 216 | 0.0 | 0.0 | 0.00 | 0.00 | 0.00 | 55 | 1013.5 |
| 20260510122654 | 68 | 210 | 2.6 | 2.6 | 0.00 | 0.00 | 0.00 | 55 | 1013.2 |
| 20260510122151 | 68 | 158 | 0.9 | 1.7 | 0.00 | 0.00 | 0.00 | 54 | 1013.7 |
| 20260510121647 | 68 | 287 | 1.7 | 1.7 | 0.00 | 0.00 | 0.00 | 54 | 1013.5 |
| 20260510121144 | 68 | 97 | 0.9 | 1.7 | 0.00 | 0.00 | 0.00 | 54 | 1013.3 |
| 20260510120642 | 68 | 129 | 2.6 | 2.6 | 0.00 | 0.00 | 0.00 | 54 | 1012.7 |
| 20260510120137 | 68 | 181 | 0.9 | 0.9 | 0.00 | 0.00 | 0.00 | 53 | 1012.7 |
| 20260510115634 | 68 | 163 | 2.6 | 2.6 | 0.00 | 0.00 | 0.00 | 53 | 1012.7 |
| 20260510115132 | 68 | 176 | 0.9 | 0.9 | 0.00 | 0.00 | 0.00 | 52 | 1012.8 |
| 20260510114627 | 68 | 214 | 0.9 | 0.9 | 0.00 | 0.00 | 0.00 | 52 | 1012.4 |
| 20260510114124 | 67 | 106 | 1.7 | 1.7 | 0.00 | 0.00 | 0.00 | 52 | 1012.7 |
| 20260510113619 | 67 | 146 | 0.9 | 0.9 | 0.00 | 0.00 | 0.00 | 52 | 1012.5 |
| 20260510113117 | 68 | 236 | 0.9 | 0.9 | 0.00 | 0.00 | 0.00 | 52 | 1012.4 |
| 20260510112613 | 68 | 100 | 1.7 | 2.6 | 0.00 | 0.00 | 0.00 | 51 | 1012.4 |
| 20260510112110 | 68 | 191 | 1.7 | 2.6 | 0.00 | 0.00 | 0.00 | 51 | 1012.4 |
| 20260510111606 | 68 | 153 | 1.7 | 2.6 | 0.00 | 0.00 | 0.00 | 50 | 1012.3 |
| 20260510111101 | 67 | 85 | 2.6 | 4.3 | 0.00 | 0.00 | 0.00 | 50 | 1012.3 |
| 20260510110553 | 68 | 109 | 2.6 | 2.6 | 0.00 | 0.00 | 0.00 | 50 | 1012.4 |
| 20260510110049 | 67 | 148 | 3.5 | 4.3 | 0.00 | 0.00 | 0.00 | 50 | 1012.1 |
| 20260510105544 | 66 | 171 | 0.9 | 0.9 | 0.00 | 0.00 | 0.00 | 51 | 1012.3 |
| 20260510105039 | 66 | 201 | 0.0 | 0.0 | 0.00 | 0.00 | 0.00 | 50 | 1012.3 |
| 20260510104536 | 66 | 206 | 0.0 | 0.0 | 0.00 | 0.00 | 0.00 | 49 | 1012.4 |
| 20260510104033 | 67 | 201 | 0.0 | 0.9 | 0.00 | 0.00 | 0.00 | 49 | 1012.4 |
| 20260510103530 | 67 | 216 | 0.0 | 0.0 | 0.00 | 0.00 | 0.00 | 47 | 1012.5 |
| 20260510103026 | 68 | 202 | 0.0 | 0.0 | 0.00 | 0.00 | 0.00 | 47 | 1012.1 |
| 20260510102522 | 68 | 214 | 0.0 | 0.0 | 0.00 | 0.00 | 0.00 | 46 | 1012.4 |
| 20260510102018 | 68 | 230 | 0.9 | 0.9 | 0.00 | 0.00 | 0.00 | 46 | 1012.3 |
| 20260510101516 | 69 | 240 | 0.9 | 1.7 | 0.00 | 0.00 | 0.00 | 46 | 1011.8 |
| 20260510101014 | 68 | 165 | 0.9 | 0.9 | 0.00 | 0.00 | 0.00 | 45 | 1012.2 |
| 20260510100510 | 68 | 332 | 0.9 | 1.7 | 0.00 | 0.00 | 0.00 | 46 | 1012.5 |
| 20260510100007 | 68 | 289 | 0.9 | 1.7 | 0.00 | 0.00 | 0.00 | 46 | 1011.8 |
| 20260510095503 | 68 | 202 | 0.9 | 1.7 | 0.00 | 0.00 | 0.00 | 45 | 1011.5 |
| 20260510095002 | 69 | 208 | 0.9 | 1.7 | 0.00 | 0.00 | 0.00 | 45 | 1011.2 |
| 20260510094457 | 69 | 136 | 2.6 | 4.3 | 0.00 | 0.00 | 0.00 | 44 | 1011.1 |
| 20260510093953 | 69 | 184 | 0.9 | 1.7 | 0.00 | 0.00 | 0.00 | 43 | 1011.1 |
| 20260510093449 | 69 | 237 | 0.9 | 0.9 | 0.00 | 0.00 | 0.00 | 43 | 1011.2 |
| 20260510092945 | 70 | 155 | 0.9 | 0.9 | 0.00 | 0.00 | 0.00 | 42 | 1011.0 |
| 20260510092443 | 70 | 226 | 0.0 | 0.9 | 0.00 | 0.00 | 0.00 | 41 | 1010.8 |
| 20260510091942 | 70 | 240 | 0.9 | 1.7 | 0.00 | 0.00 | 0.00 | 41 | 1010.8 |
| 20260510091440 | 70 | 175 | 2.6 | 2.6 | 0.00 | 0.00 | 0.00 | 40 | 1011.0 |
| 20260510090936 | 71 | 171 | 0.9 | 0.9 | 0.00 | 0.00 | 0.00 | 39 | 1011.3 |
| 20260510090433 | 71 | 107 | 1.7 | 1.7 | 0.00 | 0.00 | 0.00 | 39 | 1011.1 |
| 20260510085928 | 70 | 212 | 0.0 | 0.0 | 0.00 | 0.00 | 0.00 | 39 | 1011.4 |
| 20260510085424 | 70 | 212 | 0.9 | 0.9 | 0.00 | 0.00 | 0.00 | 38 | 1011.2 |
| 20260510084919 | 70 | 222 | 0.9 | 0.9 | 0.00 | 0.00 | 0.00 | 38 | 1011.0 |
| 20260510084417 | 71 | 209 | 0.0 | 0.0 | 0.00 | 0.00 | 0.00 | 37 | 1011.2 |
| 20260510083913 | 71 | 214 | 0.0 | 0.9 | 0.00 | 0.00 | 0.00 | 37 | 1010.8 |
| 20260510083410 | 71 | 257 | 0.0 | 0.9 | 0.00 | 0.00 | 0.00 | 36 | 1011.1 |
| 20260510082905 | 71 | 212 | 0.0 | 0.9 | 0.00 | 0.00 | 0.00 | 36 | 1010.7 |
| 20260510082404 | 72 | 206 | 0.0 | 0.9 | 0.00 | 0.00 | 0.00 | 35 | 1010.8 |
| 20260510081902 | 72 | 224 | 0.0 | 0.9 | 0.00 | 0.00 | 0.00 | 35 | 1010.6 |
| 20260510081358 | 72 | 231 | 1.7 | 1.7 | 0.00 | 0.00 | 0.00 | 35 | 1010.7 |
| 20260510080855 | 72 | 248 | 2.6 | 5.2 | 0.00 | 0.00 | 0.00 | 35 | 1011.1 |
| 20260510080348 | 71 | 243 | 0.9 | 0.9 | 0.00 | 0.00 | 0.00 | 35 | 1011.0 |
| 20260510075846 | 71 | 229 | 0.0 | 0.0 | 0.00 | 0.00 | 0.00 | 35 | 1011.1 |
| 20260510075344 | 72 | 231 | 0.0 | 0.9 | 0.00 | 0.00 | 0.00 | 35 | 1011.2 |
| 20260510074840 | 72 | 313 | 0.0 | 0.9 | 0.00 | 0.00 | 0.00 | 35 | 1011.4 |
| 20260510074337 | 72 | 254 | 1.7 | 2.6 | 0.00 | 0.00 | 0.00 | 36 | 1011.1 |
| 20260510073833 | 72 | 319 | 1.7 | 2.6 | 0.00 | 0.00 | 0.00 | 36 | 1010.8 |
| 20260510073329 | 72 | 242 | 1.7 | 1.7 | 0.00 | 0.00 | 0.00 | 36 | 1010.5 |
| 20260510072825 | 72 | 220 | 1.7 | 1.7 | 0.00 | 0.00 | 0.00 | 35 | 1010.3 |
| 20260510072322 | 72 | 246 | 3.5 | 5.2 | 0.00 | 0.00 | 0.00 | 35 | 1010.2 |
| 20260510071813 | 73 | 210 | 0.9 | 0.9 | 0.00 | 0.00 | 0.00 | 35 | 1010.0 |
| 20260510071309 | 73 | 241 | 1.7 | 1.7 | 0.00 | 0.00 | 0.00 | 35 | 1010.0 |
| 20260510070808 | 73 | 229 | 0.9 | 1.7 | 0.00 | 0.00 | 0.00 | 35 | 1010.0 |
| 20260510070304 | 73 | 348 | 1.7 | 1.7 | 0.00 | 0.00 | 0.00 | 34 | 1010.0 |
| 20260510065759 | 73 | 230 | 2.6 | 2.6 | 0.00 | 0.00 | 0.00 | 34 | 1010.1 |
| 20260510065256 | 73 | 240 | 0.9 | 1.7 | 0.00 | 0.00 | 0.00 | 34 | 1009.8 |
| 20260510064753 | 73 | 275 | 1.7 | 1.7 | 0.00 | 0.00 | 0.00 | 33 | 1010.4 |
| 20260510064250 | 74 | 250 | 0.9 | 1.7 | 0.00 | 0.00 | 0.00 | 33 | 1010.1 |
| 20260510063745 | 74 | 194 | 0.9 | 1.7 | 0.00 | 0.00 | 0.00 | 33 | 1010.2 |
| 20260510063242 | 74 | 208 | 1.7 | 2.6 | 0.00 | 0.00 | 0.00 | 32 | 1010.0 |
| 20260510062739 | 74 | 202 | 2.6 | 2.6 | 0.00 | 0.00 | 0.00 | 32 | 1010.0 |
| 20260510062235 | 74 | 204 | 0.9 | 1.7 | 0.00 | 0.00 | 0.00 | 32 | 1009.8 |
| 20260510061730 | 74 | 241 | 2.6 | 2.6 | 0.00 | 0.00 | 0.00 | 31 | 1009.8 |
| 20260510061228 | 74 | 246 | 2.6 | 4.3 | 0.00 | 0.00 | 0.00 | 31 | 1009.7 |
| 20260510060724 | 74 | 230 | 0.9 | 1.7 | 0.00 | 0.00 | 0.00 | 31 | 1009.8 |
| 20260510060221 | 75 | 171 | 2.6 | 4.3 | 0.00 | 0.00 | 0.00 | 30 | 1009.8 |
| 20260510055717 | 75 | 240 | 0.9 | 1.7 | 0.00 | 0.00 | 0.00 | 30 | 1010.0 |
| 20260510055216 | 74 | 243 | 2.6 | 4.3 | 0.00 | 0.00 | 0.00 | 30 | 1009.8 |
| 20260510054715 | 75 | 197 | 2.6 | 4.3 | 0.00 | 0.00 | 0.00 | 29 | 1010.0 |
| 20260510054211 | 75 | 266 | 0.9 | 1.7 | 0.00 | 0.00 | 0.00 | 28 | 1009.8 |
| 20260510053706 | 75 | 15 | 1.7 | 1.7 | 0.00 | 0.00 | 0.00 | 28 | 1009.7 |
| 20260510053203 | 75 | 77 | 2.6 | 4.3 | 0.00 | 0.00 | 0.00 | 27 | 1010.1 |
| 20260510052658 | 75 | 197 | 2.6 | 5.2 | 0.00 | 0.00 | 0.00 | 27 | 1009.6 |
| 20260510052154 | 76 | 137 | 3.5 | 6.1 | 0.00 | 0.00 | 0.00 | 26 | 1009.8 |
| 20260510051650 | 76 | 70 | 3.5 | 5.2 | 0.00 | 0.00 | 0.00 | 25 | 1009.7 |
| 20260510051147 | 75 | 207 | 2.6 | 5.2 | 0.00 | 0.00 | 0.00 | 25 | 1009.7 |
| 20260510050644 | 75 | 240 | 3.5 | 6.1 | 0.00 | 0.00 | 0.00 | 24 | 1009.7 |
| 20260510050142 | 75 | 179 | 0.9 | 1.7 | 0.00 | 0.00 | 0.00 | 23 | 1009.8 |
| 20260510045638 | 76 | 2 | 0.9 | 1.7 | 0.00 | 0.00 | 0.00 | 22 | 1010.0 |
| 20260510045135 | 76 | 179 | 1.7 | 2.6 | 0.00 | 0.00 | 0.00 | 22 | 1009.8 |
| 20260510044631 | 76 | 233 | 4.3 | 6.1 | 0.00 | 0.00 | 0.00 | 21 | 1009.8 |
| 20260510044129 | 76 | 223 | 2.6 | 4.3 | 0.00 | 0.00 | 0.00 | 21 | 1009.6 |
| 20260510043624 | 76 | 199 | 1.7 | 2.6 | 0.00 | 0.00 | 0.00 | 20 | 1009.8 |
| 20260510043121 | 77 | 125 | 1.7 | 2.6 | 0.00 | 0.00 | 0.00 | 20 | 1009.7 |
| 20260510042618 | 77 | 218 | 2.6 | 2.6 | 0.00 | 0.00 | 0.00 | 19 | 1009.7 |
| 20260510042114 | 77 | 223 | 0.9 | 2.6 | 0.00 | 0.00 | 0.00 | 19 | 1009.5 |
| 20260510041612 | 77 | 203 | 2.6 | 4.3 | 0.00 | 0.00 | 0.00 | 19 | 1009.7 |
| 20260510041108 | 77 | 213 | 0.0 | 0.0 | 0.00 | 0.00 | 0.00 | 19 | 1009.5 |
| 20260510040600 | 77 | 266 | 1.7 | 1.7 | 0.00 | 0.00 | 0.00 | 19 | 1009.4 |
| 20260510040056 | 77 | 188 | 0.0 | 0.9 | 0.00 | 0.00 | 0.00 | 18 | 1009.6 |
| 20260510035552 | 77 | 204 | 0.9 | 1.7 | 0.00 | 0.00 | 0.00 | 18 | 1009.6 |
| 20260510035052 | 78 | 193 | 0.0 | 0.9 | 0.00 | 0.00 | 0.00 | 18 | 1009.4 |
| 20260510034550 | 78 | 241 | 0.9 | 0.9 | 0.00 | 0.00 | 0.00 | 18 | 1009.7 |
| 20260510034047 | 78 | 206 | 0.9 | 0.9 | 0.00 | 0.00 | 0.00 | 18 | 1009.5 |
| 20260510033543 | 78 | 206 | 0.9 | 0.9 | 0.00 | 0.00 | 0.00 | 17 | 1009.4 |
| 20260510033041 | 79 | 210 | 0.9 | 4.3 | 0.00 | 0.00 | 0.00 | 17 | 1009.4 |
| 20260510032537 | 80 | 165 | 0.9 | 0.9 | 0.00 | 0.00 | 0.00 | 17 | 1009.5 |
| 20260510032033 | 80 | 166 | 0.9 | 1.7 | 0.00 | 0.00 | 0.00 | 17 | 1009.5 |
| 20260510031528 | 81 | 215 | 0.9 | 1.7 | 0.00 | 0.00 | 0.00 | 16 | 1009.4 |
| 20260510031024 | 81 | 209 | 0.9 | 0.9 | 0.00 | 0.00 | 0.00 | 16 | 1009.3 |
| 20260510030520 | 82 | 214 | 0.9 | 0.9 | 0.00 | 0.00 | 0.00 | 16 | 1009.2 |
| 20260510030017 | 83 | 227 | 0.9 | 1.7 | 0.00 | 0.00 | 0.00 | 15 | 1009.3 |
| 20260510025514 | 84 | 230 | 0.9 | 0.9 | 0.00 | 0.00 | 0.00 | 15 | 1009.1 |
| 20260510025011 | 84 | 257 | 4.3 | 6.1 | 0.00 | 0.00 | 0.00 | 14 | 1008.9 |
| 20260510024508 | 85 | 241 | 0.9 | 0.9 | 0.00 | 0.00 | 0.00 | 14 | 1008.9 |
| 20260510024004 | 86 | 224 | 0.9 | 1.7 | 0.00 | 0.00 | 0.00 | 14 | 1008.7 |
| 20260510023500 | 86 | 268 | 4.3 | 5.2 | 0.00 | 0.00 | 0.00 | 13 | 1008.7 |
| 20260510022957 | 85 | 246 | 7.0 | 8.7 | 0.00 | 0.00 | 0.00 | 14 | 1008.9 |
| 20260510022457 | 84 | 221 | 1.7 | 1.7 | 0.00 | 0.00 | 0.00 | 15 | 1008.7 |
| 20260510021956 | 85 | 222 | 0.9 | 1.7 | 0.00 | 0.00 | 0.00 | 15 | 1008.7 |
| 20260510021454 | 85 | 232 | 2.6 | 2.6 | 0.00 | 0.00 | 0.00 | 14 | 1008.5 |
| 20260510020951 | 86 | 241 | 3.5 | 4.3 | 0.00 | 0.00 | 0.00 | 14 | 1008.6 |
| 20260510020450 | 86 | 244 | 0.9 | 1.7 | 0.00 | 0.00 | 0.00 | 14 | 1008.4 |
| 20260510015946 | 86 | 227 | 0.9 | 0.9 | 0.00 | 0.00 | 0.00 | 14 | 1008.4 |
| 20260510015442 | 86 | 220 | 2.6 | 2.6 | 0.00 | 0.00 | 0.00 | 14 | 1008.4 |
| 20260510014938 | 87 | 220 | 0.9 | 0.9 | 0.00 | 0.00 | 0.00 | 14 | 1008.1 |
| 20260510014436 | 87 | 224 | 1.7 | 2.6 | 0.00 | 0.00 | 0.00 | 13 | 1008.2 |
| 20260510013932 | 87 | 212 | 0.9 | 0.9 | 0.00 | 0.00 | 0.00 | 14 | 1008.1 |
| 20260510013426 | 88 | 253 | 2.6 | 2.6 | 0.00 | 0.00 | 0.00 | 13 | 1008.3 |
| 20260510012922 | 88 | 233 | 0.9 | 1.7 | 0.00 | 0.00 | 0.00 | 13 | 1008.2 |
| 20260510012418 | 88 | 223 | 2.6 | 4.3 | 0.00 | 0.00 | 0.00 | 13 | 1007.9 |
| 20260510011912 | 89 | 243 | 2.6 | 2.6 | 0.00 | 0.00 | 0.00 | 13 | 1008.0 |
| 20260510011408 | 89 | 204 | 1.7 | 2.6 | 0.00 | 0.00 | 0.00 | 13 | 1007.9 |
| 20260510010904 | 89 | 242 | 2.6 | 4.3 | 0.00 | 0.00 | 0.00 | 12 | 1008.1 |
| 20260510010401 | 90 | 252 | 1.7 | 1.7 | 0.00 | 0.00 | 0.00 | 12 | 1007.9 |
| 20260510005858 | 90 | 266 | 4.3 | 6.1 | 0.00 | 0.00 | 0.00 | 12 | 1007.8 |
| 20260510005354 | 91 | 248 | 6.1 | 7.8 | 0.00 | 0.00 | 0.00 | 12 | 1007.9 |
| 20260510004852 | 91 | 171 | 3.5 | 5.2 | 0.00 | 0.00 | 0.00 | 12 | 1007.8 |
| 20260510004349 | 92 | 241 | 1.7 | 2.6 | 0.00 | 0.00 | 0.00 | 11 | 1008.0 |
| 20260510003847 | 91 | 255 | 4.3 | 7.8 | 0.00 | 0.00 | 0.00 | 12 | 1007.8 |
| 20260510003344 | 92 | 243 | 3.5 | 5.2 | 0.00 | 0.00 | 0.00 | 11 | 1008.0 |
| 20260510002842 | 93 | 246 | 2.6 | 4.3 | 0.00 | 0.00 | 0.00 | 11 | 1008.1 |
| 20260510002340 | 93 | 259 | 2.6 | 4.3 | 0.00 | 0.00 | 0.00 | 11 | 1007.8 |
| 20260510001836 | 93 | 167 | 3.5 | 5.2 | 0.00 | 0.00 | 0.00 | 11 | 1008.0 |
| 20260510001335 | 94 | 197 | 4.3 | 7.0 | 0.00 | 0.00 | 0.00 | 11 | 1007.9 |
| 20260510000830 | 93 | 265 | 4.3 | 5.2 | 0.00 | 0.00 | 0.00 | 11 | 1008.0 |
| 20260510000328 | 94 | 176 | 0.9 | 0.9 | 0.00 | 0.00 | 0.00 | 11 | 1007.8 |
| 20260509235825 | 94 | 229 | 2.6 | 4.3 | 0.00 | 0.00 | 0.00 | 11 | 1008.1 |
| 20260509235321 | 95 | 187 | 3.5 | 5.2 | 0.00 | 0.00 | 0.00 | 11 | 1007.9 |
| 20260509234817 | 95 | 269 | 6.1 | 7.8 | 0.00 | 0.00 | 0.00 | 11 | 1008.0 |
| 20260509234314 | 96 | 252 | 3.5 | 4.3 | 0.00 | 0.00 | 0.00 | 10 | 1008.2 |
| 20260509233812 | 96 | 198 | 3.5 | 4.3 | 0.00 | 0.00 | 0.00 | 11 | 1008.0 |
| 20260509233309 | 96 | 216 | 3.5 | 7.0 | 0.00 | 0.00 | 0.00 | 11 | 1008.1 |
| 20260509232805 | 95 | 241 | 3.5 | 4.3 | 0.00 | 0.00 | 0.00 | 11 | 1007.9 |
| 20260509232306 | 96 | 230 | 6.1 | 7.0 | 0.00 | 0.00 | 0.00 | 10 | 1008.1 |
| 20260509231759 | 96 | 223 | 1.7 | 1.7 | 0.00 | 0.00 | 0.00 | 11 | 1008.1 |
| 20260509231256 | 95 | 343 | 1.7 | 2.6 | 0.00 | 0.00 | 0.00 | 11 | 1008.2 |
| 20260509230754 | 95 | 276 | 5.2 | 6.1 | 0.00 | 0.00 | 0.00 | 11 | 1008.0 |
| 20260509230250 | 96 | 250 | 3.5 | 5.2 | 0.00 | 0.00 | 0.00 | 11 | 1008.2 |
| 20260509225745 | 96 | 254 | 4.3 | 6.1 | 0.00 | 0.00 | 0.00 | 10 | 1008.4 |
| 20260509225242 | 94 | 183 | 3.5 | 6.1 | 0.00 | 0.00 | 0.00 | 11 | 1008.3 |
| 20260509224737 | 94 | 147 | 6.1 | 9.6 | 0.00 | 0.00 | 0.00 | 11 | 1008.4 |
| 20260509224235 | 95 | 256 | 4.3 | 6.1 | 0.00 | 0.00 | 0.00 | 11 | 1008.5 |
| 20260509223732 | 94 | 212 | 4.3 | 5.2 | 0.00 | 0.00 | 0.00 | 12 | 1008.3 |
| 20260509223229 | 95 | 236 | 2.6 | 4.3 | 0.00 | 0.00 | 0.00 | 12 | 1008.3 |
| 20260509222726 | 96 | 224 | 4.3 | 7.0 | 0.00 | 0.00 | 0.00 | 12 | 1008.4 |
| 20260509222221 | 95 | 294 | 7.8 | 13.0 | 0.00 | 0.00 | 0.00 | 11 | 1008.4 |
| 20260509221717 | 93 | 263 | 4.3 | 6.1 | 0.00 | 0.00 | 0.00 | 12 | 1008.4 |
| 20260509221213 | 93 | 237 | 3.5 | 5.2 | 0.00 | 0.00 | 0.00 | 12 | 1008.5 |
| 20260509220709 | 95 | 267 | 7.0 | 8.7 | 0.00 | 0.00 | 0.00 | 11 | 1008.7 |
| 20260509220206 | 96 | 289 | 7.8 | 9.6 | 0.00 | 0.00 | 0.00 | 12 | 1009.0 |
| 20260509215701 | 96 | 264 | 1.7 | 2.6 | 0.00 | 0.00 | 0.00 | 12 | 1008.6 |
| 20260509215158 | 95 | 228 | 2.6 | 5.2 | 0.00 | 0.00 | 0.00 | 13 | 1008.7 |
| 20260509214655 | 94 | 242 | 8.7 | 12.2 | 0.00 | 0.00 | 0.00 | 12 | 1008.9 |
| 20260509214152 | 95 | 261 | 4.3 | 6.1 | 0.00 | 0.00 | 0.00 | 12 | 1009.2 |
| 20260509213649 | 96 | 235 | 9.6 | 12.2 | 0.00 | 0.00 | 0.00 | 11 | 1009.1 |
| 20260509213145 | 94 | 235 | 2.6 | 2.6 | 0.00 | 0.00 | 0.00 | 13 | 1008.9 |
| 20260509212642 | 95 | 198 | 3.5 | 5.2 | 0.00 | 0.00 | 0.00 | 12 | 1009.1 |
| 20260509212139 | 94 | 259 | 2.6 | 5.2 | 0.00 | 0.00 | 0.00 | 12 | 1009.3 |
| 20260509211635 | 94 | 274 | 3.5 | 5.2 | 0.00 | 0.00 | 0.00 | 12 | 1009.4 |
| 20260509211132 | 93 | 236 | 4.3 | 5.2 | 0.00 | 0.00 | 0.00 | 13 | 1009.5 |
| 20260509210629 | 93 | 254 | 3.5 | 7.0 | 0.00 | 0.00 | 0.00 | 12 | 1009.7 |
| 20260509210126 | 94 | 232 | 6.1 | 7.8 | 0.00 | 0.00 | 0.00 | 13 | 1009.6 |
| 20260509205620 | 95 | 246 | 9.6 | 13.0 | 0.00 | 0.00 | 0.00 | 12 | 1009.7 |
| 20260509205115 | 96 | 251 | 4.3 | 5.2 | 0.00 | 0.00 | 0.00 | 12 | 1009.7 |
| 20260509204612 | 96 | 265 | 5.2 | 6.1 | 0.00 | 0.00 | 0.00 | 12 | 1009.8 |
| 20260509204108 | 96 | 259 | 5.2 | 8.7 | 0.00 | 0.00 | 0.00 | 11 | 1009.6 |
| 20260509203604 | 96 | 274 | 7.0 | 8.7 | 0.00 | 0.00 | 0.00 | 12 | 1009.8 |
| 20260509203102 | 96 | 238 | 6.1 | 7.8 | 0.00 | 0.00 | 0.00 | 12 | 1010.0 |
| 20260509202556 | 96 | 245 | 5.2 | 7.8 | 0.00 | 0.00 | 0.00 | 12 | 1010.4 |
| 20260509202053 | 96 | 259 | 4.3 | 5.2 | 0.00 | 0.00 | 0.00 | 12 | 1010.2 |
| 20260509201547 | 96 | 206 | 7.8 | 8.7 | 0.00 | 0.00 | 0.00 | 12 | 1010.2 |
| 20260509201046 | 96 | 244 | 5.2 | 7.8 | 0.00 | 0.00 | 0.00 | 12 | 1010.4 |
| 20260509200545 | 96 | 254 | 11.3 | 14.8 | 0.00 | 0.00 | 0.00 | 12 | 1010.6 |
| 20260509200042 | 96 | 270 | 6.1 | 7.8 | 0.00 | 0.00 | 0.00 | 12 | 1010.7 |
| 20260509195537 | 96 | 242 | 4.3 | 7.0 | 0.00 | 0.00 | 0.00 | 12 | 1010.6 |
| 20260509195032 | 95 | 231 | 6.1 | 7.0 | 0.00 | 0.00 | 0.00 | 12 | 1010.8 |
| 20260509194527 | 95 | 226 | 6.1 | 9.6 | 0.00 | 0.00 | 0.00 | 12 | 1010.8 |
| 20260509194024 | 95 | 216 | 4.3 | 7.0 | 0.00 | 0.00 | 0.00 | 13 | 1010.8 |
| 20260509193518 | 95 | 217 | 5.2 | 7.8 | 0.00 | 0.00 | 0.00 | 13 | 1011.0 |
| 20260509193015 | 95 | 299 | 3.5 | 5.2 | 0.00 | 0.00 | 0.00 | 12 | 1011.0 |
| 20260509192512 | 95 | 122 | 2.6 | 5.2 | 0.00 | 0.00 | 0.00 | 12 | 1011.3 |
| 20260509192007 | 95 | 242 | 4.3 | 5.2 | 0.00 | 0.00 | 0.00 | 13 | 1011.2 |
| 20260509191502 | 95 | 252 | 4.3 | 7.0 | 0.00 | 0.00 | 0.00 | 14 | 1011.1 |
| 20260509190958 | 95 | 174 | 4.3 | 6.1 | 0.00 | 0.00 | 0.00 | 14 | 1011.2 |
| 20260509190455 | 94 | 282 | 3.5 | 5.2 | 0.00 | 0.00 | 0.00 | 14 | 1011.1 |
| 20260509185953 | 94 | 209 | 2.6 | 2.6 | 0.00 | 0.00 | 0.00 | 13 | 1011.3 |
| 20260509185450 | 94 | 176 | 2.6 | 4.3 | 0.00 | 0.00 | 0.00 | 14 | 1011.4 |
| 20260509184946 | 93 | 204 | 4.3 | 5.2 | 0.00 | 0.00 | 0.00 | 14 | 1011.6 |
| 20260509184445 | 93 | 261 | 9.6 | 13.0 | 0.00 | 0.00 | 0.00 | 14 | 1011.6 |
| 20260509183940 | 94 | 94 | 3.5 | 5.2 | 0.00 | 0.00 | 0.00 | 14 | 1011.9 |
| 20260509183435 | 93 | 263 | 5.2 | 7.0 | 0.00 | 0.00 | 0.00 | 14 | 1011.5 |
| 20260509182932 | 93 | 286 | 5.2 | 7.8 | 0.00 | 0.00 | 0.00 | 14 | 1011.9 |
| 20260509182428 | 93 | 187 | 4.3 | 6.1 | 0.00 | 0.00 | 0.00 | 15 | 1011.9 |
| 20260509181925 | 93 | 74 | 4.3 | 5.2 | 0.00 | 0.00 | 0.00 | 15 | 1012.2 |
| 20260509181423 | 92 | 222 | 2.6 | 4.3 | 0.00 | 0.00 | 0.00 | 15 | 1012.1 |
| 20260509180920 | 92 | 308 | 3.5 | 5.2 | 0.00 | 0.00 | 0.00 | 16 | 1012.4 |
| 20260509180416 | 92 | 41 | 3.5 | 5.2 | 0.00 | 0.00 | 0.00 | 15 | 1012.7 |
| 20260509175913 | 92 | 171 | 2.6 | 4.3 | 0.00 | 0.00 | 0.00 | 16 | 1012.6 |
| 20260509175409 | 92 | 224 | 2.6 | 4.3 | 0.00 | 0.00 | 0.00 | 16 | 1012.6 |
| 20260509174906 | 91 | 281 | 7.0 | 8.7 | 0.00 | 0.00 | 0.00 | 16 | 1012.8 |
| 20260509174402 | 90 | 152 | 2.6 | 2.6 | 0.00 | 0.00 | 0.00 | 17 | 1012.8 |
| 20260509173858 | 91 | 259 | 7.8 | 9.6 | 0.00 | 0.00 | 0.00 | 17 | 1013.0 |
| 20260509173357 | 90 | 233 | 5.2 | 6.1 | 0.00 | 0.00 | 0.00 | 18 | 1012.9 |
| 20260509172854 | 91 | 216 | 6.1 | 7.8 | 0.00 | 0.00 | 0.00 | 19 | 1012.9 |
| 20260509172351 | 90 | 346 | 3.5 | 5.2 | 0.00 | 0.00 | 0.00 | 19 | 1012.9 |
| 20260509171847 | 90 | 298 | 2.6 | 2.6 | 0.00 | 0.00 | 0.00 | 19 | 1012.9 |
| 20260509171343 | 89 | 84 | 3.5 | 5.2 | 0.00 | 0.00 | 0.00 | 20 | 1013.0 |
| 20260509170840 | 90 | 225 | 3.5 | 4.3 | 0.00 | 0.00 | 0.00 | 20 | 1013.0 |
| 20260509170335 | 89 | 201 | 3.5 | 6.1 | 0.00 | 0.00 | 0.00 | 20 | 1013.2 |
| 20260509165830 | 88 | 135 | 2.6 | 2.6 | 0.00 | 0.00 | 0.00 | 21 | 1013.5 |
| 20260509165325 | 88 | 248 | 4.3 | 6.1 | 0.00 | 0.00 | 0.00 | 23 | 1013.4 |
| 20260509164821 | 88 | 263 | 4.3 | 5.2 | 0.00 | 0.00 | 0.00 | 23 | 1013.5 |
| 20260509164317 | 88 | 259 | 7.8 | 12.2 | 0.00 | 0.00 | 0.00 | 22 | 1013.5 |
| 20260509163814 | 87 | 274 | 3.5 | 5.2 | 0.00 | 0.00 | 0.00 | 23 | 1013.5 |
| 20260509163310 | 86 | 301 | 0.9 | 1.7 | 0.00 | 0.00 | 0.00 | 25 | 1013.6 |
| 20260509162809 | 86 | 263 | 4.3 | 5.2 | 0.00 | 0.00 | 0.00 | 24 | 1013.8 |
| 20260509162306 | 86 | 295 | 2.6 | 4.3 | 0.00 | 0.00 | 0.00 | 25 | 1013.8 |
| 20260509161759 | 85 | 264 | 2.6 | 4.3 | 0.00 | 0.00 | 0.00 | 27 | 1013.7 |
| 20260509161255 | 84 | 168 | 2.6 | 4.3 | 0.00 | 0.00 | 0.00 | 28 | 1013.9 |
| 20260509160751 | 84 | 236 | 1.7 | 1.7 | 0.00 | 0.00 | 0.00 | 29 | 1013.9 |
| 20260509160247 | 84 | 170 | 1.7 | 1.7 | 0.00 | 0.00 | 0.00 | 30 | 1013.9 |
| 20260509155742 | 84 | 178 | 2.6 | 2.6 | 0.00 | 0.00 | 0.00 | 31 | 1013.7 |
| 20260509155239 | 83 | 211 | 0.9 | 1.7 | 0.00 | 0.00 | 0.00 | 32 | 1013.8 |
| 20260509154735 | 82 | 235 | 1.7 | 2.6 | 0.00 | 0.00 | 0.00 | 33 | 1014.0 |
| 20260509154232 | 82 | 218 | 3.5 | 4.3 | 0.00 | 0.00 | 0.00 | 33 | 1014.0 |
| 20260509153730 | 81 | 78 | 0.9 | 0.9 | 0.00 | 0.00 | 0.00 | 37 | 1014.0 |
| 20260509153225 | 81 | 300 | 1.7 | 2.6 | 0.00 | 0.00 | 0.00 | 37 | 1013.8 |
| 20260509152722 | 80 | 245 | 0.9 | 1.7 | 0.00 | 0.00 | 0.00 | 38 | 1013.7 |
| 20260509152219 | 79 | 88 | 0.9 | 1.7 | 0.00 | 0.00 | 0.00 | 39 | 1013.9 |
| 20260509151715 | 79 | 242 | 2.6 | 5.2 | 0.00 | 0.00 | 0.00 | 39 | 1014.0 |
| 20260509151213 | 78 | 176 | 0.9 | 0.9 | 0.00 | 0.00 | 0.00 | 41 | 1014.1 |
| 20260509150710 | 78 | 141 | 2.6 | 4.3 | 0.00 | 0.00 | 0.00 | 41 | 1014.1 |
| 20260509150209 | 77 | 184 | 1.7 | 2.6 | 0.00 | 0.00 | 0.00 | 43 | 1014.1 |
| 20260509145704 | 77 | 91 | 0.9 | 1.7 | 0.00 | 0.00 | 0.00 | 44 | 1014.1 |
| 20260509145200 | 77 | 219 | 1.7 | 2.6 | 0.00 | 0.00 | 0.00 | 44 | 1014.5 |
| 20260509144656 | 75 | 166 | 0.9 | 0.9 | 0.00 | 0.00 | 0.00 | 47 | 1014.1 |
| 20260509144154 | 75 | 187 | 1.7 | 1.7 | 0.00 | 0.00 | 0.00 | 47 | 1014.0 |
| 20260509143651 | 74 | 170 | 1.7 | 1.7 | 0.00 | 0.00 | 0.00 | 49 | 1014.0 |
| 20260509143148 | 73 | 163 | 1.7 | 1.7 | 0.00 | 0.00 | 0.00 | 50 | 1013.9 |
| 20260509142643 | 73 | 194 | 1.7 | 2.6 | 0.00 | 0.00 | 0.00 | 51 | 1014.1 |
| 20260509142141 | 71 | 227 | 2.6 | 2.6 | 0.00 | 0.00 | 0.00 | 53 | 1014.0 |
| 20260509141636 | 71 | 182 | 1.7 | 1.7 | 0.00 | 0.00 | 0.00 | 54 | 1013.8 |
| 20260509141132 | 70 | 176 | 2.6 | 4.3 | 0.00 | 0.00 | 0.00 | 54 | 1014.3 |
| 20260509140630 | 70 | 209 | 2.6 | 2.6 | 0.00 | 0.00 | 0.00 | 57 | 1014.0 |
| 20260509140128 | 69 | 181 | 0.9 | 1.7 | 0.00 | 0.00 | 0.00 | 60 | 1014.5 |
| 20260509135624 | 69 | 241 | 1.7 | 2.6 | 0.00 | 0.00 | 0.00 | 61 | 1014.3 |
| 20260509135123 | 67 | 206 | 0.9 | 1.7 | 0.00 | 0.00 | 0.00 | 65 | 1014.1 |
| 20260509134619 | 67 | 154 | 2.6 | 2.6 | 0.00 | 0.00 | 0.00 | 65 | 1014.3 |
| 20260509134116 | 66 | 180 | 1.7 | 1.7 | 0.00 | 0.00 | 0.00 | 66 | 1014.3 |
| 20260509133614 | 66 | 185 | 3.5 | 5.2 | 0.00 | 0.00 | 0.00 | 67 | 1014.3 |
| 20260509133111 | 65 | 177 | 1.7 | 1.7 | 0.00 | 0.00 | 0.00 | 70 | 1014.5 |
| 20260509132609 | 65 | 181 | 1.7 | 1.7 | 0.00 | 0.00 | 0.00 | 71 | 1014.3 |
| 20260509132107 | 65 | 140 | 1.7 | 2.6 | 0.00 | 0.00 | 0.00 | 72 | 1014.4 |
| 20260509131603 | 64 | 189 | 0.9 | 0.9 | 0.00 | 0.00 | 0.00 | 74 | 1014.4 |